createdAt,value
2022-08-31T00:01:43.206Z,95643.38
2022-08-31T00:04:13.749Z,95646.38
2022-08-31T00:06:43.340Z,95645.56
2022-08-31T00:09:12.907Z,95635.53
2022-08-31T00:11:42.393Z,95633.94
2022-08-31T00:14:15.264Z,95636.63
2022-08-31T00:16:47.790Z,95636.94
2022-08-31T00:19:17.589Z,95644.84
2022-08-31T00:21:47.487Z,95631.88
2022-08-31T00:24:17.154Z,95634.09
2022-08-31T00:26:46.809Z,95639.81
2022-08-31T00:29:16.897Z,95639.28
2022-08-31T00:31:48.008Z,95647.41
2022-08-31T00:34:17.649Z,95636.06
2022-08-31T00:36:47.456Z,95639.06
2022-08-31T00:39:17.003Z,95640.97
2022-08-31T00:41:47.950Z,95632.84
2022-08-31T00:44:17.673Z,95630.44
2022-08-31T00:46:48.712Z,95639.66
2022-08-31T00:49:23.400Z,95628.81
2022-08-31T00:52:00.932Z,95629.13
2022-08-31T00:54:35.927Z,95633.44
2022-08-31T00:57:08.756Z,95630.22
2022-08-31T00:59:39.716Z,95629.41
2022-08-31T01:02:10.926Z,95636.25
2022-08-31T01:04:40.686Z,95622.69
2022-08-31T01:07:10.833Z,95625.41
2022-08-31T01:09:52.653Z,95630.03
2022-08-31T01:12:27.049Z,95628.94
2022-08-31T01:14:58.801Z,95622.41
2022-08-31T01:17:30.311Z,95627.81
2022-08-31T01:20:13.117Z,95628.94
2022-08-31T01:23:05.207Z,95625.91
2022-08-31T01:25:36.760Z,95630.22
2022-08-31T01:28:09.689Z,95635.63
2022-08-31T01:30:43.641Z,95629.13
2022-08-31T01:33:13.849Z,95632.94
2022-08-31T01:35:46.179Z,95628.00
2022-08-31T01:38:17.057Z,95630.72
2022-08-31T01:40:52.927Z,95628.00
2022-08-31T01:43:22.955Z,95631.81
2022-08-31T01:45:53.575Z,95624.00
2022-08-31T01:48:24.789Z,95622.41
2022-08-31T01:50:54.508Z,95625.41
2022-08-31T01:53:25.609Z,95620.28
2022-08-31T01:55:55.173Z,95616.78
2022-08-31T01:58:24.862Z,95619.78
2022-08-31T02:01:33.847Z,95619.47
2022-08-31T02:04:07.059Z,95626.81
2022-08-31T02:06:38.277Z,95617.06
2022-08-31T02:09:09.435Z,95623.00
2022-08-31T02:11:39.735Z,95619.47
2022-08-31T02:14:10.777Z,95623.28
2022-08-31T02:16:42.033Z,95621.09
2022-08-31T02:19:12.196Z,95625.19
2022-08-31T02:21:42.556Z,95623.59
2022-08-31T02:24:13.505Z,95624.69
2022-08-31T02:26:43.238Z,95623.06
2022-08-31T02:29:12.750Z,95629.28
2022-08-31T02:31:42.545Z,95624.16
2022-08-31T02:34:12.346Z,95621.47
2022-08-31T02:36:42.775Z,95626.06
2022-08-31T02:39:15.007Z,95629.06
2022-08-31T02:41:44.742Z,95622.84
2022-08-31T02:44:14.369Z,95624.75
2022-08-31T02:46:44.495Z,95622.84
2022-08-31T02:49:37.262Z,95620.94
2022-08-31T02:52:06.777Z,95620.94
2022-08-31T02:54:37.745Z,95627.97
2022-08-31T02:57:07.637Z,95621.47
2022-08-31T02:59:37.173Z,95626.59
2022-08-31T03:02:06.974Z,95624.97
2022-08-31T03:04:39.537Z,95617.94
2022-08-31T03:07:09.660Z,95619.03
2022-08-31T03:09:40.537Z,95624.16
2022-08-31T03:12:13.444Z,95617.94
2022-08-31T03:14:43.056Z,95611.44
2022-08-31T03:17:12.561Z,95619.56
2022-08-31T03:19:42.215Z,95615.22
2022-08-31T03:22:13.320Z,95622.25
2022-08-31T03:24:44.974Z,95619.25
2022-08-31T03:27:14.453Z,95619.25
2022-08-31T03:29:43.972Z,95615.44
2022-08-31T03:32:21.890Z,95616.84
2022-08-31T03:34:57.083Z,95622.78
2022-08-31T03:37:27.834Z,95620.06
2022-08-31T03:40:03.007Z,95620.88
2022-08-31T03:42:33.992Z,95616.56
2022-08-31T03:45:04.921Z,95625.50
2022-08-31T03:47:44.481Z,95620.06
2022-08-31T03:50:16.241Z,95618.47
2022-08-31T03:53:10.499Z,95634.72
2022-08-31T03:55:43.972Z,95637.44
2022-08-31T03:58:13.961Z,95634.72
2022-08-31T04:00:45.193Z,95639.03
2022-08-31T04:03:32.021Z,95645.25
2022-08-31T04:06:31.050Z,95649.59
2022-08-31T04:09:23.772Z,95649.88
2022-08-31T04:12:21.110Z,95660.22
2022-08-31T04:15:14.074Z,95660.22
2022-08-31T04:18:09.929Z,95650.97
2022-08-31T04:20:46.591Z,95650.69
2022-08-31T04:23:16.200Z,95639.56
2022-08-31T04:25:53.886Z,95647.69
2022-08-31T04:28:25.281Z,95646.88
2022-08-31T04:30:55.240Z,95653.09
2022-08-31T04:33:24.832Z,95651.72
2022-08-31T04:35:54.416Z,95653.09
2022-08-31T04:38:23.933Z,95660.13
2022-08-31T04:40:53.401Z,95656.63
2022-08-31T04:43:25.050Z,95654.41
2022-08-31T04:45:54.610Z,95651.09
2022-08-31T04:48:24.202Z,95653.81
2022-08-31T04:51:02.023Z,95658.44
2022-08-31T04:53:31.814Z,95664.16
2022-08-31T04:56:14.602Z,95668.47
2022-08-31T04:58:52.181Z,95660.34
2022-08-31T05:01:26.025Z,95654.59
2022-08-31T05:04:16.492Z,95664.34
2022-08-31T05:06:47.873Z,95655.94
2022-08-31T05:09:22.421Z,95657.84
2022-08-31T05:11:54.655Z,95657.53
2022-08-31T05:14:26.597Z,95663.47
2022-08-31T05:17:02.508Z,95663.19
2022-08-31T05:19:37.976Z,95666.41
2022-08-31T05:22:10.022Z,95656.88
2022-08-31T05:24:41.693Z,95661.72
2022-08-31T05:27:11.599Z,95663.81
2022-08-31T05:29:43.382Z,95662.13
2022-08-31T05:32:37.900Z,95660.44
2022-08-31T05:35:09.683Z,95651.41
2022-08-31T05:37:40.469Z,95657.25
2022-08-31T05:40:13.183Z,95666.09
2022-08-31T05:42:43.335Z,95661.41
2022-08-31T05:45:14.494Z,95669.50
2022-08-31T05:47:45.203Z,95663.94
2022-08-31T05:50:14.845Z,95665.47
2022-08-31T05:52:45.721Z,95667.00
2022-08-31T05:55:15.401Z,95664.19
2022-08-31T05:57:45.112Z,95667.59
2022-08-31T06:00:17.162Z,95667.50
2022-08-31T06:02:53.978Z,95658.75
2022-08-31T06:05:23.970Z,95678.78
2022-08-31T06:07:54.485Z,95672.75
2022-08-31T06:10:25.226Z,95673.25
2022-08-31T06:12:54.856Z,95677.78
2022-08-31T06:15:26.493Z,95681.81
2022-08-31T06:17:56.136Z,95688.06
2022-08-31T06:20:27.291Z,95689.66
2022-08-31T06:22:57.096Z,95686.63
2022-08-31T06:25:37.648Z,95687.94
2022-08-31T06:28:08.889Z,95685.41
2022-08-31T06:30:54.489Z,95686.72
2022-08-31T06:33:25.801Z,95692.06
2022-08-31T06:36:13.908Z,95694.19
2022-08-31T06:39:03.724Z,95691.66
2022-08-31T06:41:41.492Z,95691.56
2022-08-31T06:44:29.677Z,95690.03
2022-08-31T06:47:13.294Z,95696.66
2022-08-31T06:49:44.174Z,95694.66
2022-08-31T06:52:15.875Z,95698.59
2022-08-31T06:54:48.721Z,95698.66
2022-08-31T06:57:50.176Z,95706.41
2022-08-31T07:00:54.982Z,95709.53
2022-08-31T07:03:34.017Z,95714.84
2022-08-31T07:06:27.824Z,95712.00
2022-08-31T07:09:01.978Z,95721.16
2022-08-31T07:11:37.470Z,95713.19
2022-08-31T07:14:12.269Z,95716.41
2022-08-31T07:16:44.520Z,95725.38
2022-08-31T07:19:16.600Z,95728.28
2022-08-31T07:21:49.322Z,95720.13
2022-08-31T07:24:28.921Z,95722.25
2022-08-31T07:27:04.233Z,95724.34
2022-08-31T07:29:41.694Z,95729.16
2022-08-31T07:32:17.877Z,95731.25
2022-08-31T07:34:57.347Z,95731.75
2022-08-31T07:38:02.566Z,95734.66
2022-08-31T07:40:51.720Z,95736.78
2022-08-31T07:43:22.521Z,95738.88
2022-08-31T07:45:52.950Z,95738.38
2022-08-31T07:48:27.250Z,95741.09
2022-08-31T07:51:04.444Z,95742.72
2022-08-31T07:53:58.677Z,95745.63
2022-08-31T07:56:35.021Z,95749.34
2022-08-31T07:59:20.804Z,95747.78
2022-08-31T08:01:51.359Z,95740.00
2022-08-31T08:04:25.478Z,95730.81
2022-08-31T08:07:16.631Z,95733.16
2022-08-31T08:10:00.400Z,95730.22
2022-08-31T08:12:57.171Z,95734.75
2022-08-31T08:15:52.191Z,95732.09
2022-08-31T08:18:42.237Z,95737.94
2022-08-31T08:21:12.103Z,95744.59
2022-08-31T08:23:42.932Z,95732.63
2022-08-31T08:26:53.456Z,95740.19
2022-08-31T08:29:42.548Z,95740.53
2022-08-31T08:32:18.879Z,95748.88
2022-08-31T08:34:48.501Z,95745.38
2022-08-31T08:37:18.105Z,95745.50
2022-08-31T08:39:50.105Z,95743.75
2022-08-31T08:42:24.949Z,95747.00
2022-08-31T08:44:54.805Z,95750.06
2022-08-31T08:47:39.171Z,95749.88
2022-08-31T08:50:11.506Z,95755.16
2022-08-31T08:52:46.966Z,95757.56
2022-08-31T08:55:23.115Z,95753.56
2022-08-31T08:57:56.029Z,95761.38
2022-08-31T09:00:29.663Z,95753.84
2022-08-31T09:03:08.569Z,95756.72
2022-08-31T09:06:11.100Z,95759.13
2022-08-31T09:09:25.658Z,95762.34
2022-08-31T09:12:25.820Z,95761.53
2022-08-31T09:15:53.314Z,95763.63
2022-08-31T09:18:46.783Z,95763.78
2022-08-31T09:21:25.506Z,95773.06
2022-08-31T09:24:04.707Z,95774.19
2022-08-31T09:27:17.807Z,95772.88
2022-08-31T09:29:55.936Z,95776.75
2022-08-31T09:32:31.434Z,95770.66
2022-08-31T09:35:03.626Z,95776.25
2022-08-31T09:37:46.306Z,95776.59
2022-08-31T09:40:23.308Z,95768.38
2022-08-31T09:43:08.294Z,95772.25
2022-08-31T09:45:58.586Z,95770.03
2022-08-31T09:48:51.805Z,95767.91
2022-08-31T09:51:28.143Z,95772.56
2022-08-31T09:54:24.120Z,95774.03
2022-08-31T09:56:57.483Z,95762.38
2022-08-31T09:59:41.929Z,95769.72
2022-08-31T10:02:33.434Z,95768.75
2022-08-31T10:05:07.798Z,95774.31
2022-08-31T10:07:48.978Z,95766.56
2022-08-31T10:10:30.348Z,95771.53
2022-08-31T10:13:04.364Z,95767.81
2022-08-31T10:15:47.006Z,95770.00
2022-08-31T10:18:24.676Z,95766.91
2022-08-31T10:21:06.004Z,95768.50
2022-08-31T10:23:44.991Z,95771.91
2022-08-31T10:26:31.476Z,95766.59
2022-08-31T10:29:07.043Z,95770.22
2022-08-31T10:31:48.651Z,95767.38
2022-08-31T10:34:43.157Z,95767.88
2022-08-31T10:37:19.044Z,95770.34
2022-08-31T10:39:54.274Z,95773.75
2022-08-31T10:42:34.336Z,95770.34
2022-08-31T10:45:17.753Z,95776.81
2022-08-31T10:47:52.621Z,95778.28
2022-08-31T10:50:34.012Z,95777.00
2022-08-31T10:53:22.462Z,95783.00
2022-08-31T10:56:03.250Z,95781.88
2022-08-31T10:58:51.338Z,95782.53
2022-08-31T11:01:36.168Z,95777.88
2022-08-31T11:04:53.675Z,95781.75
2022-08-31T11:07:59.312Z,95780.31
2022-08-31T11:10:44.554Z,95781.09
2022-08-31T11:13:38.397Z,95787.03
2022-08-31T11:16:40.697Z,95782.88
2022-08-31T11:19:43.300Z,95788.81
2022-08-31T11:23:08.536Z,95782.09
2022-08-31T11:26:47.870Z,95796.44
2022-08-31T11:29:41.479Z,95788.25
2022-08-31T11:32:21.683Z,95792.44
2022-08-31T11:34:56.552Z,95794.50
2022-08-31T11:37:55.864Z,95794.50
2022-08-31T11:41:10.993Z,95786.94
2022-08-31T11:43:52.266Z,95794.13
2022-08-31T11:47:06.974Z,95792.06
2022-08-31T11:49:47.416Z,95795.41
2022-08-31T11:52:48.215Z,95802.47
2022-08-31T11:55:28.304Z,95806.03
2022-08-31T11:58:34.689Z,95807.59
2022-08-31T12:01:36.269Z,95804.97
2022-08-31T12:04:06.589Z,95817.63
2022-08-31T12:07:11.601Z,95819.19
2022-08-31T12:10:32.748Z,95819.63
2022-08-31T12:13:30.927Z,95814.75
2022-08-31T12:16:38.852Z,95822.69
2022-08-31T12:19:51.456Z,95831.31
2022-08-31T12:23:36.551Z,95834.81
2022-08-31T12:26:45.114Z,95850.16
2022-08-31T12:29:28.892Z,95852.81
2022-08-31T12:32:23.701Z,95859.84
2022-08-31T12:35:09.508Z,95854.13
2022-08-31T12:37:41.483Z,95852.72
2022-08-31T12:40:22.857Z,95857.38
2022-08-31T12:43:05.188Z,95858.16
2022-08-31T12:46:48.111Z,95860.47
2022-08-31T12:49:47.570Z,95864.69
2022-08-31T12:52:41.857Z,95867.75
2022-08-31T12:55:35.273Z,95877.25
2022-08-31T12:58:39.123Z,95868.50
2022-08-31T13:01:13.457Z,95867.81
2022-08-31T13:03:53.859Z,95882.00
2022-08-31T13:06:34.429Z,95872.03
2022-08-31T13:09:06.724Z,95863.38
2022-08-31T13:11:41.019Z,95868.00
2022-08-31T13:14:18.556Z,95872.03
2022-08-31T13:16:52.480Z,95867.09
2022-08-31T13:19:26.552Z,95859.13
2022-08-31T13:22:00.662Z,95850.38
2022-08-31T13:24:35.929Z,95853.91
2022-08-31T13:27:17.958Z,95840.59
2022-08-31T13:29:52.032Z,95847.66
2022-08-31T13:32:34.710Z,95845.75
2022-08-31T13:35:11.073Z,95845.75
2022-08-31T13:38:04.746Z,95853.09
2022-08-31T13:40:39.810Z,95849.06
2022-08-31T13:43:11.913Z,95847.84
2022-08-31T13:45:58.247Z,95845.63
2022-08-31T13:48:34.172Z,95852.50
2022-08-31T13:51:13.063Z,95847.34
2022-08-31T13:53:47.123Z,95851.97
2022-08-31T13:56:48.156Z,95849.25
2022-08-31T13:59:38.719Z,95847.56
2022-08-31T14:02:37.458Z,95839.09
2022-08-31T14:05:12.770Z,95847.75
2022-08-31T14:08:07.177Z,95847.75
2022-08-31T14:10:42.082Z,95848.56
2022-08-31T14:13:21.480Z,95854.81
2022-08-31T14:15:56.230Z,95853.69
2022-08-31T14:18:31.599Z,95848.25
2022-08-31T14:21:23.538Z,95848.56
2022-08-31T14:24:01.206Z,95856.41
2022-08-31T14:26:34.617Z,95855.63
2022-08-31T14:29:10.482Z,95853.19
2022-08-31T14:31:48.465Z,95852.38
2022-08-31T14:34:30.105Z,95858.13
2022-08-31T14:37:06.595Z,95851.38
2022-08-31T14:39:41.717Z,95853.00
2022-08-31T14:42:18.773Z,95856.81
2022-08-31T14:44:53.582Z,95851.69
2022-08-31T14:47:24.073Z,95849.25
2022-08-31T14:49:58.728Z,95846.25
2022-08-31T14:52:28.402Z,95844.94
2022-08-31T14:54:59.373Z,95838.09
2022-08-31T14:57:32.245Z,95838.69
2022-08-31T15:00:07.229Z,95846.34
2022-08-31T15:02:37.828Z,95837.69
2022-08-31T15:05:11.057Z,95844.22
2022-08-31T15:07:42.974Z,95841.63
2022-08-31T15:10:13.365Z,95842.25
2022-08-31T15:12:42.941Z,95845.56
2022-08-31T15:15:20.310Z,95839.63
2022-08-31T15:18:14.996Z,95839.63
2022-08-31T15:20:46.527Z,95843.13
2022-08-31T15:23:20.599Z,95845.56
2022-08-31T15:25:50.448Z,95839.63
2022-08-31T15:28:20.128Z,95843.75
2022-08-31T15:30:50.034Z,95841.13
2022-08-31T15:33:21.533Z,95840.09
2022-08-31T15:36:02.756Z,95833.34
2022-08-31T15:38:32.234Z,95841.03
2022-08-31T15:41:01.843Z,95841.84
2022-08-31T15:43:31.946Z,95832.88
2022-08-31T15:46:02.064Z,95830.63
2022-08-31T15:48:42.617Z,95830.63
2022-08-31T15:51:21.696Z,95824.59
2022-08-31T15:54:20.832Z,95821.06
2022-08-31T15:56:46.728Z,95823.19
2022-08-31T15:59:16.220Z,95824.81
2022-08-31T16:01:45.839Z,95824.50
2022-08-31T16:04:23.629Z,95832.66
2022-08-31T16:06:55.499Z,95830.53
2022-08-31T16:09:25.141Z,95829.75
2022-08-31T16:11:54.839Z,95834.16
2022-08-31T16:14:24.797Z,95825.19
2022-08-31T16:16:55.066Z,95829.66
2022-08-31T16:19:35.035Z,95825.31
2022-08-31T16:22:08.712Z,95815.53
2022-08-31T16:24:39.628Z,95819.66
2022-08-31T16:27:15.834Z,95817.22
2022-08-31T16:29:50.712Z,95821.34
2022-08-31T16:32:20.964Z,95817.31
2022-08-31T16:34:50.545Z,95821.66
2022-08-31T16:37:22.024Z,95821.44
2022-08-31T16:39:51.653Z,95825.56
2022-08-31T16:42:21.137Z,95830.78
2022-08-31T16:44:50.866Z,95826.28
2022-08-31T16:47:21.447Z,95822.75
2022-08-31T16:49:52.227Z,95825.47
2022-08-31T16:52:26.675Z,95820.03
2022-08-31T16:54:57.311Z,95816.53
2022-08-31T16:57:32.555Z,95824.97
2022-08-31T17:00:04.713Z,95828.78
2022-08-31T17:02:34.398Z,95826.38
2022-08-31T17:05:04.742Z,95823.94
2022-08-31T17:07:35.748Z,95823.44
2022-08-31T17:10:06.979Z,95823.75
2022-08-31T17:12:38.213Z,95821.31
2022-08-31T17:15:13.804Z,95831.69
2022-08-31T17:17:46.176Z,95835.78
2022-08-31T17:20:16.427Z,95833.16
2022-08-31T17:22:48.467Z,95835.66
2022-08-31T17:25:18.596Z,95843.13
2022-08-31T17:27:48.057Z,95842.09
2022-08-31T17:30:20.828Z,95841.06
2022-08-31T17:32:50.320Z,95843.78
2022-08-31T17:35:20.081Z,95848.63
2022-08-31T17:37:51.062Z,95845.63
2022-08-31T17:40:21.164Z,95841.50
2022-08-31T17:42:51.944Z,95852.88
2022-08-31T17:45:21.579Z,95849.88
2022-08-31T17:47:51.054Z,95844.09
2022-08-31T17:50:21.239Z,95845.72
2022-08-31T17:52:53.987Z,95847.16
2022-08-31T17:55:23.544Z,95845.72
2022-08-31T17:57:53.125Z,95845.25
2022-08-31T18:00:22.931Z,95850.66
2022-08-31T18:02:52.388Z,95855.88
2022-08-31T18:05:22.777Z,95859.69
2022-08-31T18:07:53.663Z,95861.59
2022-08-31T18:10:23.609Z,95858.38
2022-08-31T18:12:53.165Z,95860.28
2022-08-31T18:15:23.560Z,95861.69
2022-08-31T18:17:55.692Z,95865.81
2022-08-31T18:20:25.246Z,95869.09
2022-08-31T18:22:56.153Z,95872.09
2022-08-31T18:25:26.797Z,95872.41
2022-08-31T18:27:57.084Z,95867.06
2022-08-31T18:30:26.758Z,95869.88
2022-08-31T18:32:56.809Z,95873.69
2022-08-31T18:35:30.949Z,95871.56
2022-08-31T18:38:06.261Z,95870.81
2022-08-31T18:40:56.440Z,95874.13
2022-08-31T18:43:43.573Z,95870.88
2022-08-31T18:46:13.089Z,95874.72
2022-08-31T18:49:01.063Z,95873.69
2022-08-31T18:51:40.660Z,95877.78
2022-08-31T18:54:13.373Z,95881.88
2022-08-31T18:56:43.741Z,95886.81
2022-08-31T18:59:13.595Z,95883.84
2022-08-31T19:01:44.094Z,95890.38
2022-08-31T19:04:17.628Z,95890.97
2022-08-31T19:06:50.862Z,95888.31
2022-08-31T19:09:24.047Z,95894.31
2022-08-31T19:11:57.109Z,95888.09
2022-08-31T19:14:27.838Z,95899.50
2022-08-31T19:17:01.140Z,95899.00
2022-08-31T19:19:33.941Z,95896.56
2022-08-31T19:22:03.675Z,95899.56
2022-08-31T19:24:35.849Z,95896.66
2022-08-31T19:27:05.672Z,95888.31
2022-08-31T19:29:35.552Z,95892.69
2022-08-31T19:32:08.584Z,95887.56
2022-08-31T19:34:43.137Z,95881.63
2022-08-31T19:37:15.507Z,95886.50
2022-08-31T19:39:46.762Z,95883.81
2022-08-31T19:42:16.949Z,95885.72
2022-08-31T19:44:55.747Z,95882.19
2022-08-31T19:47:38.749Z,95881.91
2022-08-31T19:50:17.058Z,95887.03
2022-08-31T19:52:47.433Z,95883.50
2022-08-31T19:55:19.016Z,95878.38
2022-08-31T19:57:48.506Z,95866.72
2022-08-31T20:00:19.962Z,95867.81
2022-08-31T20:02:49.483Z,95869.72
2022-08-31T20:05:20.915Z,95860.50
2022-08-31T20:07:50.533Z,95859.47
2022-08-31T20:10:27.117Z,95854.31
2022-08-31T20:12:59.790Z,95849.19
2022-08-31T20:15:29.443Z,95854.63
2022-08-31T20:17:58.936Z,95851.63
2022-08-31T20:20:28.904Z,95847.28
2022-08-31T20:22:58.658Z,95852.44
2022-08-31T20:25:29.732Z,95860.31
2022-08-31T20:27:59.421Z,95859.31
2022-08-31T20:30:28.961Z,95863.41
2022-08-31T20:32:58.412Z,95866.19
2022-08-31T20:35:32.024Z,95871.66
2022-08-31T20:38:01.558Z,95869.00
2022-08-31T20:40:33.339Z,95875.81
2022-08-31T20:43:08.498Z,95883.13
2022-08-31T20:45:38.994Z,95886.66
2022-08-31T20:48:28.444Z,95877.72
2022-08-31T20:50:59.250Z,95881.22
2022-08-31T20:53:43.280Z,95881.22
2022-08-31T20:56:18.289Z,95876.09
2022-08-31T20:58:48.328Z,95873.09
2022-08-31T21:01:17.799Z,95873.31
2022-08-31T21:03:48.121Z,95867.34
2022-08-31T21:06:17.600Z,95868.13
2022-08-31T21:08:47.078Z,95869.53
2022-08-31T21:11:21.668Z,95865.47
2022-08-31T21:13:52.957Z,95867.69
2022-08-31T21:16:25.028Z,95869.28
2022-08-31T21:18:54.957Z,95872.53
2022-08-31T21:21:24.432Z,95867.09
2022-08-31T21:23:54.080Z,95861.09
2022-08-31T21:26:29.105Z,95871.94
2022-08-31T21:28:59.782Z,95870.84
2022-08-31T21:31:29.994Z,95869.53
2022-08-31T21:34:02.985Z,95865.78
2022-08-31T21:36:34.227Z,95859.03
2022-08-31T21:39:06.197Z,95860.41
2022-08-31T21:41:38.101Z,95858.59
2022-08-31T21:44:09.113Z,95862.09
2022-08-31T21:46:41.814Z,95859.41
2022-08-31T21:49:12.092Z,95855.59
2022-08-31T21:51:48.593Z,95855.59
2022-08-31T21:54:21.896Z,95860.41
2022-08-31T21:56:56.420Z,95863.13
2022-08-31T21:59:29.749Z,95856.59
2022-08-31T22:02:00.281Z,95862.53
2022-08-31T22:04:32.789Z,95860.13
2022-08-31T22:07:03.025Z,95869.06
2022-08-31T22:09:33.604Z,95867.44
2022-08-31T22:12:07.399Z,95867.44
2022-08-31T22:14:41.223Z,95872.84
2022-08-31T22:17:10.927Z,95869.34
2022-08-31T22:19:40.952Z,95870.97
2022-08-31T22:22:13.745Z,95874.47
2022-08-31T22:24:43.460Z,95868.75
2022-08-31T22:27:16.167Z,95870.38
2022-08-31T22:29:45.660Z,95864.97
2022-08-31T22:32:16.369Z,95866.88
2022-08-31T22:34:46.292Z,95863.06
2022-08-31T22:37:16.441Z,95862.25
2022-08-31T22:39:45.953Z,95864.97
2022-08-31T22:42:16.842Z,95864.69
2022-08-31T22:44:46.573Z,95866.56
2022-08-31T22:47:16.045Z,95856.25
2022-08-31T22:49:45.661Z,95867.91
2022-08-31T22:52:17.428Z,95860.59
2022-08-31T22:54:47.066Z,95854.88
2022-08-31T22:57:18.461Z,95859.50
2022-08-31T22:59:48.194Z,95855.16
2022-08-31T23:02:18.516Z,95847.84
2022-08-31T23:04:50.071Z,95850.56
2022-08-31T23:07:19.757Z,95846.22
2022-08-31T23:09:49.292Z,95845.41
2022-08-31T23:12:20.261Z,95845.72
2022-08-31T23:14:49.787Z,95838.69
2022-08-31T23:17:19.266Z,95843.28
2022-08-31T23:19:52.184Z,95840.88
2022-08-31T23:22:24.585Z,95845.75
2022-08-31T23:24:58.425Z,95842.25
2022-08-31T23:27:30.171Z,95838.25
2022-08-31T23:30:00.401Z,95844.97
2022-08-31T23:32:33.693Z,95841.75
2022-08-31T23:35:04.257Z,95837.44
2022-08-31T23:37:34.012Z,95832.81
2022-08-31T23:40:05.997Z,95826.59
2022-08-31T23:42:41.152Z,95829.31
2022-08-31T23:45:12.632Z,95828.22
2022-08-31T23:47:42.206Z,95818.19
2022-08-31T23:50:14.667Z,95819.75
2022-08-31T23:52:45.769Z,95810.06
2022-08-31T23:55:15.789Z,95819.28
2022-08-31T23:57:58.145Z,95821.47
